Aérodrome :
LOGIN :

S'inscrire | Disclaimer

   EN    FR    IT 

 










Légende :    VFR   VFR Marginal   IFR   IFR Intensif   IFR Très Intensif
Visi : 
Plafond : 
>= 8 km
>= 3000ft
5 à 8 km
1000 à 3000 ft
1500m à 5 km
500 à 1000 ft
800 à 1500m
200 à 500 ft
< 800m
< 200 ft
Symboles :   Orages  Brouillard  Fortes neiges  Fortes précipitations  Vent > 20 kt
SIGMETs :   Divers  Orages  Givrage  Turbulence  Onde Orograph.  Cendres Volcan.






- Altitude de l'aérodrome : 230 ft


ETHB - Buckeburg Army

DERNIER METAR :
  • 212020Z AUTO 16004KT 9999 // ////// 06/03 Q1007 ///

METARs EXPIRÉS :
  • 212000Z 13003KT 9999 FEW070 SCT110 BKN140 06/04 Q1007 BLU FCST CANCEL
  • 211920Z 17004KT 9999 FEW015 BKN130 06/04 Q1007 BLU BLU TEMPO GRN
  • 211820Z 15004KT 9999 FEW013 BKN120 06/04 Q1007 BLU BLU TEMPO GRN

TAF AMD TAF ETHB
Valide du 21 à 18h jusqu'au 22 à 03h UTC


211942Z 2118/2203 14005KT 9999 NSW SCT015 BKN100
TEMPO 2118/2203 17007KT 4000 -RA BKN008 CANCEL 2000



MET'MAP, la Météo Aéronautique d'un coup d'oeil ! - Copyright ORBIFLY Décembre 2007 - Disclaimer

ORBIFLY MET'MAP TEAM :

Programmation & Développement : Alexandra Zaïnal
Conception & Développement : Baudouin d'Aumeries
Co-Programmation & Développement : Marc-Olivier Méhu
Soutien technique & logistique : Manuel Goepfert

Contact : metmap@orbifly.com




SOURCES & CREDITS :

   NOAA